createdAt,value
2022-12-08T00:02:15.470Z,13.40
2022-12-08T00:05:04.870Z,13.02
2022-12-08T00:07:54.274Z,13.23
2022-12-08T00:10:48.472Z,12.10
2022-12-08T00:13:19.192Z,12.23
2022-12-08T00:15:50.070Z,13.02
2022-12-08T00:18:20.821Z,12.20
2022-12-08T00:20:57.318Z,12.73
2022-12-08T00:23:28.260Z,12.80
2022-12-08T00:26:02.556Z,14.43
2022-12-08T00:28:34.472Z,13.43
2022-12-08T00:31:12.079Z,13.63
2022-12-08T00:33:42.451Z,14.65
2022-12-08T00:36:15.310Z,14.32
2022-12-08T00:38:46.037Z,13.52
2022-12-08T00:41:40.732Z,8.77
2022-12-08T00:44:16.446Z,8.13
2022-12-08T00:46:47.374Z,6.05
2022-12-08T00:49:19.259Z,6.40
2022-12-08T00:51:50.063Z,4.57
2022-12-08T00:54:22.195Z,3.25
2022-12-08T00:56:53.031Z,5.25
2022-12-08T00:59:23.875Z,6.22
2022-12-08T01:01:54.195Z,5.60
2022-12-08T01:04:25.129Z,5.57
2022-12-08T01:06:56.471Z,5.60
2022-12-08T01:09:27.313Z,4.65
2022-12-08T01:11:57.878Z,5.45
2022-12-08T01:14:28.967Z,6.03
2022-12-08T01:16:59.248Z,5.93
2022-12-08T01:19:31.836Z,6.57
2022-12-08T01:22:02.513Z,8.50
2022-12-08T01:24:33.568Z,6.93
2022-12-08T01:27:04.282Z,7.72
2022-12-08T01:29:35.491Z,7.22
2022-12-08T01:32:05.641Z,8.40
2022-12-08T01:34:36.615Z,8.40
2022-12-08T01:37:07.437Z,8.90
2022-12-08T01:39:38.204Z,9.80
2022-12-08T01:42:24.317Z,8.27
2022-12-08T01:44:58.780Z,9.00
2022-12-08T01:47:38.065Z,11.20
2022-12-08T01:50:11.895Z,12.15
2022-12-08T01:52:47.800Z,12.10
2022-12-08T01:55:26.675Z,12.77
2022-12-08T01:58:24.670Z,12.50
2022-12-08T02:00:55.925Z,12.30
2022-12-08T02:03:31.124Z,15.02
2022-12-08T02:06:01.790Z,14.23
2022-12-08T02:08:32.921Z,12.35
2022-12-08T02:11:03.750Z,12.50
2022-12-08T02:13:34.588Z,16.80
2022-12-08T02:16:22.694Z,18.42
2022-12-08T02:19:34.032Z,16.73
2022-12-08T02:22:08.711Z,17.58
2022-12-08T02:24:47.485Z,16.75
2022-12-08T02:27:45.616Z,16.55
2022-12-08T02:30:48.835Z,17.13
2022-12-08T02:34:13.836Z,17.52
2022-12-08T02:37:02.101Z,19.08
2022-12-08T02:39:47.064Z,18.05
2022-12-08T02:42:32.361Z,18.67
2022-12-08T02:45:23.807Z,17.75
2022-12-08T02:47:54.705Z,20.08
2022-12-08T02:50:25.404Z,20.23
2022-12-08T02:52:56.082Z,19.60
2022-12-08T02:55:34.320Z,19.45
2022-12-08T02:58:31.642Z,19.17
2022-12-08T03:01:29.956Z,14.90
2022-12-08T03:04:22.977Z,14.95
2022-12-08T03:07:05.000Z,13.05
2022-12-08T03:09:36.109Z,12.43
2022-12-08T03:12:24.681Z,11.00
2022-12-08T03:14:57.680Z,11.85
2022-12-08T03:17:31.149Z,10.55
2022-12-08T03:20:05.985Z,12.02
2022-12-08T03:22:36.716Z,10.25
2022-12-08T03:25:08.257Z,11.98
2022-12-08T03:27:39.654Z,11.30
2022-12-08T03:30:10.663Z,12.52
2022-12-08T03:32:49.772Z,11.65
2022-12-08T03:35:24.396Z,12.60
2022-12-08T03:38:04.408Z,11.02
2022-12-08T03:40:35.260Z,11.18
2022-12-08T03:43:05.598Z,9.52
2022-12-08T03:45:36.544Z,9.73
2022-12-08T03:48:07.398Z,9.20
2022-12-08T03:50:38.649Z,9.85
2022-12-08T03:53:09.331Z,10.32
2022-12-08T03:55:39.871Z,11.00
2022-12-08T03:58:10.401Z,10.35
2022-12-08T04:00:44.391Z,10.02
2022-12-08T04:03:14.811Z,6.18
2022-12-08T04:05:45.460Z,5.47
2022-12-08T04:08:19.417Z,4.03
2022-12-08T04:10:50.321Z,3.42
2022-12-08T04:13:20.604Z,3.80
2022-12-08T04:15:51.823Z,3.72
2022-12-08T04:18:22.367Z,3.10
2022-12-08T04:20:52.626Z,3.30
2022-12-08T04:23:23.099Z,4.75
2022-12-08T04:25:54.441Z,3.47
2022-12-08T04:28:25.736Z,2.88
2022-12-08T04:31:00.715Z,3.95
2022-12-08T04:33:32.277Z,5.60
2022-12-08T04:36:07.559Z,3.17
2022-12-08T04:38:37.838Z,3.05
2022-12-08T04:41:08.566Z,3.25
2022-12-08T04:43:38.809Z,2.95
2022-12-08T04:46:13.526Z,2.33
2022-12-08T04:48:47.164Z,1.90
2022-12-08T04:51:20.596Z,2.10
2022-12-08T04:53:51.419Z,2.90
2022-12-08T04:56:22.054Z,2.10
2022-12-08T04:58:55.218Z,2.38
2022-12-08T05:01:26.390Z,3.13
2022-12-08T05:03:57.285Z,2.28
2022-12-08T05:06:28.455Z,2.00
2022-12-08T05:08:59.541Z,2.05
2022-12-08T05:11:30.223Z,1.70
2022-12-08T05:14:01.011Z,1.60
2022-12-08T05:16:32.836Z,1.92
2022-12-08T05:19:03.442Z,2.08
2022-12-08T05:21:33.861Z,1.80
2022-12-08T05:24:08.144Z,1.73
2022-12-08T05:26:39.442Z,2.05
2022-12-08T05:29:09.771Z,1.88
2022-12-08T05:31:40.055Z,2.13
2022-12-08T05:34:10.625Z,2.22
2022-12-08T05:36:41.355Z,2.20
2022-12-08T05:39:16.174Z,1.90
2022-12-08T05:41:46.468Z,2.83
2022-12-08T05:44:17.145Z,2.22
2022-12-08T05:46:47.461Z,2.15
2022-12-08T05:49:18.400Z,2.50
2022-12-08T05:51:48.976Z,2.67
2022-12-08T05:54:19.790Z,3.60
2022-12-08T05:56:50.646Z,2.00
2022-12-08T05:59:24.279Z,2.70
2022-12-08T06:01:55.349Z,3.30
2022-12-08T06:04:25.802Z,3.15
2022-12-08T06:06:56.634Z,2.80
2022-12-08T06:09:26.985Z,3.05
2022-12-08T06:12:01.981Z,2.30
2022-12-08T06:14:36.413Z,3.15
2022-12-08T06:17:06.818Z,2.83
2022-12-08T06:19:37.791Z,3.20
2022-12-08T06:22:08.281Z,1.92
2022-12-08T06:24:38.989Z,2.00
2022-12-08T06:27:09.311Z,2.08
2022-12-08T06:29:40.034Z,2.20
2022-12-08T06:32:10.605Z,2.30
2022-12-08T06:34:41.259Z,2.50
2022-12-08T06:37:12.163Z,5.25
2022-12-08T06:39:42.481Z,8.32
2022-12-08T06:42:31.328Z,12.98
2022-12-08T06:45:01.842Z,10.95
2022-12-08T06:47:32.847Z,11.55
2022-12-08T06:50:04.225Z,9.25
2022-12-08T06:52:40.869Z,9.23
2022-12-08T06:55:35.315Z,9.25
2022-12-08T06:58:07.587Z,10.07
2022-12-08T07:00:38.146Z,9.52
2022-12-08T07:03:10.126Z,9.18
2022-12-08T07:05:40.884Z,11.15
2022-12-08T07:08:11.701Z,10.73
2022-12-08T07:10:42.971Z,8.80
2022-12-08T07:13:13.573Z,8.43
2022-12-08T07:15:44.686Z,9.05
2022-12-08T07:18:15.328Z,8.48
2022-12-08T07:20:46.239Z,8.65
2022-12-08T07:23:16.630Z,8.27
2022-12-08T07:25:47.600Z,8.88
2022-12-08T07:28:17.878Z,8.73
2022-12-08T07:30:48.451Z,8.98
2022-12-08T07:33:19.372Z,8.10
2022-12-08T07:36:00.250Z,10.00
2022-12-08T07:38:31.517Z,9.30
2022-12-08T07:41:02.796Z,9.95
2022-12-08T07:43:33.981Z,14.35
2022-12-08T07:46:04.386Z,12.70
2022-12-08T07:48:35.000Z,13.85
2022-12-08T07:51:06.801Z,10.13
2022-12-08T07:53:37.298Z,11.00
2022-12-08T07:56:08.874Z,10.85
2022-12-08T07:58:39.758Z,10.95
2022-12-08T08:01:30.513Z,11.40
2022-12-08T08:04:03.262Z,10.48
2022-12-08T08:06:35.629Z,17.35
2022-12-08T08:09:37.718Z,12.70
2022-12-08T08:12:30.215Z,10.75
2022-12-08T08:14:58.992Z,10.45
2022-12-08T08:17:30.595Z,10.18
2022-12-08T08:20:01.862Z,10.20
2022-12-08T08:22:32.852Z,10.50
2022-12-08T08:25:03.918Z,11.00
2022-12-08T08:27:34.237Z,14.05
2022-12-08T08:30:07.102Z,12.63
2022-12-08T08:32:38.220Z,11.38
2022-12-08T08:35:10.449Z,11.75
2022-12-08T08:37:45.594Z,12.55
2022-12-08T08:40:20.902Z,12.60
2022-12-08T08:42:53.728Z,12.60
2022-12-08T08:45:24.459Z,8.32
2022-12-08T08:47:55.114Z,7.57
2022-12-08T08:50:25.620Z,4.85
2022-12-08T08:52:55.916Z,5.68
2022-12-08T08:55:26.681Z,3.38
2022-12-08T08:57:57.145Z,4.18
2022-12-08T09:00:28.908Z,5.15
2022-12-08T09:02:59.514Z,4.68
2022-12-08T09:05:30.288Z,4.57
2022-12-08T09:08:00.564Z,3.80
2022-12-08T09:10:31.261Z,4.28
2022-12-08T09:13:01.511Z,3.85
2022-12-08T09:15:32.903Z,4.20
2022-12-08T09:18:03.336Z,4.82
2022-12-08T09:20:34.946Z,6.20
2022-12-08T09:23:05.612Z,6.90
2022-12-08T09:25:36.094Z,23.70
2022-12-08T09:28:06.457Z,9.27
2022-12-08T09:30:37.008Z,6.55
2022-12-08T09:33:07.530Z,9.60
2022-12-08T09:35:37.909Z,7.78
2022-12-08T09:38:14.271Z,6.93
2022-12-08T09:40:51.081Z,5.97
2022-12-08T09:43:42.136Z,7.68
2022-12-08T09:46:15.849Z,5.80
2022-12-08T09:48:56.795Z,8.27
2022-12-08T09:51:32.988Z,7.82
2022-12-08T09:54:17.329Z,7.20
2022-12-08T09:56:47.994Z,6.95
2022-12-08T09:59:32.428Z,6.38
2022-12-08T10:02:03.864Z,7.57
2022-12-08T10:04:39.180Z,5.53
2022-12-08T10:07:23.098Z,8.25
2022-12-08T10:10:14.441Z,6.43
2022-12-08T10:13:04.796Z,8.10
2022-12-08T10:15:48.430Z,6.80
2022-12-08T10:18:27.226Z,7.75
2022-12-08T10:21:23.201Z,9.10
2022-12-08T10:23:58.066Z,17.70
2022-12-08T10:26:33.535Z,12.98
2022-12-08T10:29:08.017Z,9.95
2022-12-08T10:31:38.772Z,10.35
2022-12-08T10:34:35.164Z,10.23
2022-12-08T10:37:11.299Z,11.23
2022-12-08T10:39:46.726Z,9.10
2022-12-08T10:42:22.510Z,8.82
2022-12-08T10:45:16.638Z,9.00
2022-12-08T10:47:57.573Z,8.10
2022-12-08T10:50:31.283Z,9.02
2022-12-08T10:53:11.333Z,8.45
2022-12-08T10:56:05.143Z,7.50
2022-12-08T10:58:45.952Z,9.32
2022-12-08T11:01:26.081Z,9.85
2022-12-08T11:03:57.764Z,10.75
2022-12-08T11:06:34.208Z,11.07
2022-12-08T11:09:24.935Z,10.52
2022-12-08T11:11:59.717Z,11.82
2022-12-08T11:14:33.602Z,14.40
2022-12-08T11:17:28.678Z,14.52
2022-12-08T11:20:23.887Z,14.80
2022-12-08T11:22:56.676Z,13.30
2022-12-08T11:25:31.300Z,13.18
2022-12-08T11:28:03.390Z,10.88
2022-12-08T11:30:43.248Z,27.65
2022-12-08T11:33:29.051Z,29.55
2022-12-08T11:36:08.701Z,25.63
2022-12-08T11:38:43.790Z,14.85
2022-12-08T11:41:24.330Z,15.10
2022-12-08T11:44:05.920Z,13.98
2022-12-08T11:46:40.511Z,13.55
2022-12-08T11:49:16.586Z,15.05
2022-12-08T11:51:56.299Z,12.00
2022-12-08T11:54:43.459Z,10.57
2022-12-08T11:57:21.797Z,9.73
2022-12-08T11:59:53.866Z,8.68
2022-12-08T12:02:30.897Z,9.10
2022-12-08T12:05:47.858Z,8.50
2022-12-08T12:08:46.422Z,7.55
2022-12-08T12:12:20.126Z,7.35
2022-12-08T12:15:20.896Z,7.63
2022-12-08T12:18:09.752Z,8.80
2022-12-08T12:21:07.197Z,7.90
2022-12-08T12:23:48.045Z,7.47
2022-12-08T12:26:31.019Z,8.15
2022-12-08T12:29:07.424Z,7.95
2022-12-08T12:31:44.109Z,8.80
2022-12-08T12:34:38.062Z,8.48
2022-12-08T12:37:15.312Z,9.20
2022-12-08T12:39:54.083Z,11.13
2022-12-08T12:42:43.143Z,10.35
2022-12-08T12:45:27.123Z,10.32
2022-12-08T12:47:57.647Z,10.05
2022-12-08T12:50:39.532Z,9.30
2022-12-08T12:53:23.830Z,9.40
2022-12-08T12:56:03.355Z,8.00
2022-12-08T12:58:33.688Z,8.63
2022-12-08T13:01:13.709Z,6.80
2022-12-08T13:03:46.912Z,8.13
2022-12-08T13:06:25.748Z,12.18
2022-12-08T13:08:58.013Z,11.73
2022-12-08T13:11:28.980Z,10.55
2022-12-08T13:14:04.777Z,11.25
2022-12-08T13:16:41.096Z,10.77
2022-12-08T13:19:17.917Z,10.05
2022-12-08T13:21:48.501Z,10.00
2022-12-08T13:24:34.574Z,10.55
2022-12-08T13:27:05.018Z,9.65
2022-12-08T13:29:38.181Z,9.40
2022-12-08T13:32:14.498Z,8.68
2022-12-08T13:34:53.955Z,9.20
2022-12-08T13:37:39.658Z,7.45
2022-12-08T13:40:18.181Z,6.75
2022-12-08T13:42:51.300Z,6.28
2022-12-08T13:46:12.227Z,6.70
2022-12-08T13:53:49.183Z,6.80
2022-12-08T13:55:49.758Z,6.50
2022-12-08T13:57:38.790Z,7.10
2022-12-08T14:00:17.545Z,7.80
2022-12-08T14:02:50.549Z,7.10
2022-12-08T14:05:40.823Z,7.60
2022-12-08T14:11:40.044Z,6.50
2022-12-08T14:15:00.672Z,6.65
2022-12-08T14:17:24.236Z,6.18
2022-12-08T14:20:00.401Z,5.97
2022-12-08T14:22:37.618Z,6.15
2022-12-08T14:25:12.774Z,6.20
2022-12-08T14:27:43.644Z,5.38
2022-12-08T14:30:17.284Z,5.95
2022-12-08T14:32:55.767Z,5.30
2022-12-08T14:35:37.909Z,5.40
2022-12-08T14:38:18.540Z,6.10
2022-12-08T14:40:51.179Z,5.68
2022-12-08T14:43:22.235Z,6.38
2022-12-08T14:45:54.322Z,6.28
2022-12-08T14:48:42.970Z,6.15
2022-12-08T14:51:23.059Z,7.65
2022-12-08T14:54:03.093Z,6.28
2022-12-08T14:56:37.880Z,6.32
2022-12-08T14:59:31.070Z,6.72
2022-12-08T15:02:26.650Z,6.60
2022-12-08T15:05:23.393Z,8.13
2022-12-08T15:07:56.182Z,7.50
2022-12-08T15:10:28.966Z,8.00
2022-12-08T15:13:21.924Z,8.25
2022-12-08T15:15:58.655Z,7.47
2022-12-08T15:18:37.888Z,6.72
2022-12-08T15:21:10.111Z,6.22
2022-12-08T15:23:50.474Z,6.55
2022-12-08T15:26:23.276Z,6.13
2022-12-08T15:28:54.327Z,5.72
2022-12-08T15:31:25.845Z,6.40
2022-12-08T15:33:56.712Z,6.55
2022-12-08T15:36:29.729Z,5.80
2022-12-08T15:39:00.202Z,5.50
2022-12-08T15:41:30.617Z,5.53
2022-12-08T15:44:01.678Z,5.43
2022-12-08T15:46:32.646Z,6.18
2022-12-08T15:49:03.646Z,5.30
2022-12-08T15:51:37.755Z,6.05
2022-12-08T15:54:08.068Z,5.75
2022-12-08T15:57:10.544Z,8.30
2022-12-08T15:59:34.405Z,11.52
2022-12-08T16:02:05.602Z,13.93
2022-12-08T16:05:25.176Z,13.27
2022-12-08T16:07:29.657Z,15.70
2022-12-08T16:09:59.948Z,17.13
2022-12-08T16:13:48.116Z,15.88
2022-12-08T16:15:55.133Z,14.75
2022-12-08T16:18:33.286Z,13.02
2022-12-08T16:23:54.774Z,12.32
2022-12-08T16:27:35.058Z,11.63
2022-12-08T16:29:22.414Z,10.35
2022-12-08T16:31:53.680Z,10.07
2022-12-08T16:34:23.957Z,9.35
2022-12-08T16:36:54.291Z,9.90
2022-12-08T16:39:25.587Z,12.40
2022-12-08T16:42:15.138Z,12.25
2022-12-08T16:44:45.717Z,12.05
2022-12-08T16:47:16.790Z,13.10
2022-12-08T16:49:47.706Z,12.90
2022-12-08T16:52:19.433Z,14.35
2022-12-08T16:54:50.524Z,12.55
2022-12-08T16:57:21.097Z,13.32
2022-12-08T16:59:52.658Z,13.70
2022-12-08T17:02:23.158Z,12.32
2022-12-08T17:04:53.640Z,13.20
2022-12-08T17:07:24.662Z,13.38
2022-12-08T17:09:55.001Z,13.60
2022-12-08T17:12:25.477Z,13.85
2022-12-08T17:14:55.821Z,12.35
2022-12-08T17:17:26.354Z,10.05
2022-12-08T17:20:09.256Z,11.15
2022-12-08T17:22:40.109Z,10.90
2022-12-08T17:25:11.075Z,10.93
2022-12-08T17:27:42.347Z,10.10
2022-12-08T17:30:16.481Z,10.88
2022-12-08T17:32:50.192Z,10.35
2022-12-08T17:35:20.927Z,10.40
2022-12-08T17:37:51.451Z,9.88
2022-12-08T17:40:23.651Z,8.48
2022-12-08T17:42:57.838Z,9.85
2022-12-08T17:45:28.136Z,9.27
2022-12-08T17:47:58.645Z,8.85
2022-12-08T17:50:29.296Z,8.70
2022-12-08T17:52:59.913Z,10.05
2022-12-08T17:55:31.010Z,10.85
2022-12-08T17:58:02.387Z,9.82
2022-12-08T18:00:33.740Z,10.25
2022-12-08T18:03:04.576Z,10.50
2022-12-08T18:05:36.263Z,11.93
2022-12-08T18:08:06.979Z,10.48
2022-12-08T18:10:37.478Z,10.48
2022-12-08T18:13:10.393Z,10.23
2022-12-08T18:15:41.023Z,10.70
2022-12-08T18:18:11.324Z,10.75
2022-12-08T18:20:42.299Z,10.73
2022-12-08T18:23:12.625Z,10.05
2022-12-08T18:25:42.682Z,10.75
2022-12-08T18:28:12.935Z,9.32
2022-12-08T18:30:43.467Z,10.77
2022-12-08T18:33:13.755Z,10.48
2022-12-08T18:35:44.242Z,9.88
2022-12-08T18:38:14.790Z,9.48
2022-12-08T18:40:44.896Z,10.07
2022-12-08T18:43:15.978Z,9.15
2022-12-08T18:45:46.845Z,8.98
2022-12-08T18:48:17.695Z,8.90
2022-12-08T18:50:49.714Z,9.82
2022-12-08T18:53:20.358Z,10.10
2022-12-08T18:55:51.939Z,9.73
2022-12-08T18:58:22.962Z,9.55
2022-12-08T19:00:53.736Z,9.45
2022-12-08T19:03:24.510Z,10.25
2022-12-08T19:06:08.162Z,12.07
2022-12-08T19:08:38.764Z,11.18
2022-12-08T19:11:25.138Z,10.48
2022-12-08T19:13:56.483Z,10.40
2022-12-08T19:16:26.973Z,9.90
2022-12-08T19:18:58.127Z,10.00
2022-12-08T19:21:28.662Z,10.35
2022-12-08T19:23:59.607Z,9.70
2022-12-08T19:26:30.520Z,10.05
2022-12-08T19:29:01.094Z,9.63
2022-12-08T19:31:31.389Z,10.68
2022-12-08T19:34:02.025Z,9.07
2022-12-08T19:36:36.338Z,9.63
2022-12-08T19:39:25.399Z,10.73
2022-12-08T19:42:14.165Z,13.15
2022-12-08T19:44:54.033Z,14.75
2022-12-08T19:47:26.358Z,13.40
2022-12-08T19:50:17.254Z,13.43
2022-12-08T19:52:47.793Z,12.98
2022-12-08T19:55:18.643Z,14.18
2022-12-08T19:57:49.227Z,12.85
2022-12-08T20:00:20.901Z,13.98
2022-12-08T20:02:52.623Z,13.45
2022-12-08T20:05:24.331Z,12.77
2022-12-08T20:07:56.653Z,13.25
2022-12-08T20:10:29.774Z,12.57
2022-12-08T20:13:18.295Z,13.48
2022-12-08T20:15:48.874Z,12.30
2022-12-08T20:18:20.053Z,11.13
2022-12-08T20:20:50.674Z,11.43
2022-12-08T20:23:21.178Z,11.68
2022-12-08T20:25:53.740Z,10.55
2022-12-08T20:28:24.773Z,10.75
2022-12-08T20:30:55.308Z,9.43
2022-12-08T20:33:26.104Z,10.25
2022-12-08T20:36:01.249Z,9.05
2022-12-08T20:38:32.229Z,9.15
2022-12-08T20:41:02.765Z,8.85
2022-12-08T20:43:33.448Z,9.73
2022-12-08T20:46:12.166Z,9.45
2022-12-08T20:48:43.832Z,9.93
2022-12-08T20:51:19.302Z,9.68
2022-12-08T20:53:49.702Z,10.23
2022-12-08T20:56:22.839Z,10.35
2022-12-08T20:58:54.273Z,10.55
2022-12-08T21:01:26.094Z,10.40
2022-12-08T21:03:56.748Z,10.68
2022-12-08T21:06:30.789Z,10.55
2022-12-08T21:09:01.580Z,10.55
2022-12-08T21:11:32.527Z,12.02
2022-12-08T21:14:04.822Z,15.20
2022-12-08T21:16:35.621Z,14.63
2022-12-08T21:19:06.937Z,14.23
2022-12-08T21:21:37.178Z,16.73
2022-12-08T21:24:08.421Z,16.67
2022-12-08T21:26:39.535Z,19.65
2022-12-08T21:29:18.352Z,16.02
2022-12-08T21:31:49.151Z,14.20
2022-12-08T21:34:19.510Z,14.30
2022-12-08T21:36:50.426Z,13.95
2022-12-08T21:39:21.066Z,13.82
2022-12-08T21:42:22.859Z,13.18
2022-12-08T21:44:53.983Z,13.85
2022-12-08T21:47:24.725Z,13.43
2022-12-08T21:49:56.027Z,13.57
2022-12-08T21:52:26.932Z,13.35
2022-12-08T21:54:57.749Z,13.10
2022-12-08T21:57:28.832Z,12.43
2022-12-08T21:59:59.634Z,12.07
2022-12-08T22:02:30.528Z,13.55
2022-12-08T22:05:01.524Z,11.75
2022-12-08T22:07:32.962Z,12.02
2022-12-08T22:10:03.913Z,12.65
2022-12-08T22:12:36.800Z,13.05
2022-12-08T22:15:09.069Z,13.25
2022-12-08T22:17:44.478Z,13.32
2022-12-08T22:20:16.377Z,12.73
2022-12-08T22:22:47.711Z,13.13
2022-12-08T22:25:18.415Z,14.40
2022-12-08T22:27:49.007Z,14.40
2022-12-08T22:30:19.486Z,13.90
2022-12-08T22:32:49.883Z,13.95
2022-12-08T22:35:20.395Z,14.93
2022-12-08T22:37:51.643Z,14.85
2022-12-08T22:40:22.414Z,14.40
2022-12-08T22:42:52.835Z,15.35
2022-12-08T22:45:24.834Z,16.88
2022-12-08T22:47:55.432Z,18.02
2022-12-08T22:50:26.470Z,18.38
2022-12-08T22:52:56.624Z,18.10
2022-12-08T22:55:27.503Z,17.33
2022-12-08T22:57:58.162Z,17.17
2022-12-08T23:00:29.390Z,17.35
2022-12-08T23:03:00.236Z,17.35
2022-12-08T23:05:35.108Z,19.38
2022-12-08T23:08:06.662Z,18.85
2022-12-08T23:10:37.676Z,18.55
2022-12-08T23:13:08.734Z,18.10
2022-12-08T23:15:40.511Z,18.65
2022-12-08T23:18:16.335Z,17.52
2022-12-08T23:20:47.679Z,15.98
2022-12-08T23:23:18.646Z,19.15
2022-12-08T23:25:49.019Z,16.73
2022-12-08T23:28:19.364Z,17.52
2022-12-08T23:30:49.953Z,18.45
2022-12-08T23:33:20.931Z,17.45
2022-12-08T23:35:59.215Z,17.60
2022-12-08T23:38:31.665Z,17.63
2022-12-08T23:41:06.543Z,19.50
2022-12-08T23:43:37.360Z,19.45
2022-12-08T23:46:08.515Z,20.73
2022-12-08T23:48:39.146Z,19.63
2022-12-08T23:51:09.793Z,21.33
2022-12-08T23:53:40.169Z,21.58
2022-12-08T23:56:17.014Z,23.05
2022-12-08T23:58:48.116Z,25.15
